Time;durP1;ratioP1;P1;durP2;ratioP2;P2;SDS_P1;SDS_P2;PMS_P1;PMS_P2;Temp;Humidity;BMP_temperature;BMP_pressure;BME280_temperature;BME280_humidity;BME280_pressure;Samples;Min_cycle;Max_cycle;Signal;HPM_P1;HPM_P2
2024/01/22 00:00:22;;;;;;;8.98;5.22;;;;;;;;;;5008467;28;20485;-78
2024/01/22 00:02:48;;;;;;;7.97;4.78;;;;;;;;;;5016008;28;20033;-79
2024/01/22 00:05:13;;;;;;;9.07;4.78;;;;;;;;;;5015092;28;20108;-80
2024/01/22 00:07:39;;;;;;;9.13;4.70;;;;;;;;;;5015640;28;20061;-79
2024/01/22 00:10:05;;;;;;;9.38;4.80;;;;;;;;;;5014034;28;20043;-81
2024/01/22 00:12:31;;;;;;;9.70;4.85;;;;;;;;;;5005713;28;20038;-79
2024/01/22 00:14:56;;;;;;;7.65;4.60;;;;;;;;;;5017051;28;20566;-79
2024/01/22 00:17:22;;;;;;;9.07;5.05;;;;;;;;;;5008966;28;20040;-81
2024/01/22 00:19:49;;;;;;;8.10;4.75;;;;;;;;;;5013553;28;20037;-80
2024/01/22 00:22:14;;;;;;;10.48;5.10;;;;;;;;;;5012921;28;20042;-77
2024/01/22 00:24:40;;;;;;;10.13;5.00;;;;;;;;;;5013204;28;20048;-80
2024/01/22 00:27:06;;;;;;;9.68;4.80;;;;;;;;;;5011843;28;20038;-80
2024/01/22 00:29:31;;;;;;;9.77;4.80;;;;;;;;;;4998669;28;20489;-81
2024/01/22 00:31:57;;;;;;;9.10;4.90;;;;;;;;;;5003115;28;20038;-80
2024/01/22 00:34:22;;;;;;;9.98;5.47;;;;;;;;;;4997086;28;20038;-79
2024/01/22 00:36:47;;;;;;;8.80;4.97;;;;;;;;;;4995057;28;20044;-80
2024/01/22 00:39:13;;;;;;;9.60;4.85;;;;;;;;;;4995655;28;20052;-79
2024/01/22 00:41:38;;;;;;;7.80;4.85;;;;;;;;;;4994942;28;20041;-81
2024/01/22 00:44:04;;;;;;;8.82;4.35;;;;;;;;;;4993491;28;20034;-83
2024/01/22 00:46:29;;;;;;;7.75;4.28;;;;;;;;;;4994201;28;20062;-81
2024/01/22 00:48:54;;;;;;;8.02;4.40;;;;;;;;;;4981727;28;20070;-81
2024/01/22 00:51:21;;;;;;;9.13;4.55;;;;;;;;;;4992406;28;20038;-82
2024/01/22 00:53:46;;;;;;;8.30;4.43;;;;;;;;;;4986262;28;20048;-80
2024/01/22 00:56:12;;;;;;;8.40;4.60;;;;;;;;;;4995161;28;20034;-81
2024/01/22 00:58:37;;;;;;;9.13;4.60;;;;;;;;;;4982718;28;20525;-81
2024/01/22 01:01:03;;;;;;;8.13;4.30;;;;;;;;;;4980397;28;20046;-79
2024/01/22 01:03:29;;;;;;;8.02;4.05;;;;;;;;;;4995928;28;20038;-80
2024/01/22 01:05:54;;;;;;;7.50;4.10;;;;;;;;;;4984110;28;20081;-81
2024/01/22 01:08:20;;;;;;;9.57;4.40;;;;;;;;;;5012102;28;20042;-80
2024/01/22 01:10:45;;;;;;;7.43;4.40;;;;;;;;;;5020332;28;20168;-80
2024/01/22 01:13:10;;;;;;;8.93;3.85;;;;;;;;;;4998105;28;20030;-79
2024/01/22 01:15:36;;;;;;;7.72;4.20;;;;;;;;;;5002887;28;20882;-81
2024/01/22 01:18:01;;;;;;;8.68;4.38;;;;;;;;;;5005854;28;20531;-80
2024/01/22 01:20:27;;;;;;;10.07;4.15;;;;;;;;;;5016151;28;20167;-82
2024/01/22 01:22:52;;;;;;;13.20;4.35;;;;;;;;;;5015890;28;20091;-82
2024/01/22 01:25:17;;;;;;;7.97;3.97;;;;;;;;;;5014383;28;20038;-81
2024/01/22 01:27:43;;;;;;;7.35;3.65;;;;;;;;;;5012312;28;20033;-81
2024/01/22 01:30:10;;;;;;;6.97;3.80;;;;;;;;;;5012209;28;20046;-81
2024/01/22 01:32:37;;;;;;;10.70;3.92;;;;;;;;;;5010296;28;20708;-82
2024/01/22 01:35:03;;;;;;;8.52;4.15;;;;;;;;;;5014897;28;20112;-80
2024/01/22 01:37:28;;;;;;;8.23;3.90;;;;;;;;;;5013823;28;20140;-81
2024/01/22 01:39:54;;;;;;;8.25;4.22;;;;;;;;;;5014163;28;20125;-81
2024/01/22 01:42:19;;;;;;;7.95;3.90;;;;;;;;;;5013180;28;20064;-80
2024/01/22 01:44:51;;;;;;;9.82;4.18;;;;;;;;;;4999133;28;20042;-81
2024/01/22 01:47:17;;;;;;;7.57;4.00;;;;;;;;;;4995307;28;20038;-80
2024/01/22 01:49:44;;;;;;;8.23;3.80;;;;;;;;;;4999851;28;20026;-81
2024/01/22 01:52:10;;;;;;;6.88;3.65;;;;;;;;;;4997328;28;20559;-82
2024/01/22 01:54:37;;;;;;;8.30;4.38;;;;;;;;;;4987107;28;20197;-82
2024/01/22 01:57:02;;;;;;;7.90;3.70;;;;;;;;;;4989798;28;20042;-81
2024/01/22 01:59:28;;;;;;;10.77;3.90;;;;;;;;;;4981079;28;20069;-81
2024/01/22 02:01:53;;;;;;;9.02;4.10;;;;;;;;;;4994117;28;20045;-80
2024/01/22 02:04:19;;;;;;;7.35;3.35;;;;;;;;;;4998161;28;20036;-81
2024/01/22 02:06:44;;;;;;;6.30;3.50;;;;;;;;;;4997124;28;20037;-80
2024/01/22 02:09:10;;;;;;;8.38;3.97;;;;;;;;;;5001797;28;20486;-81
2024/01/22 02:11:36;;;;;;;6.25;3.70;;;;;;;;;;4996130;28;20065;-80
2024/01/22 02:14:01;;;;;;;8.10;3.70;;;;;;;;;;5017484;28;20037;-80
2024/01/22 02:16:26;;;;;;;6.97;3.60;;;;;;;;;;5015918;28;20057;-81
2024/01/22 02:18:52;;;;;;;7.85;3.80;;;;;;;;;;5024676;28;20034;-80
2024/01/22 02:21:17;;;;;;;6.43;3.60;;;;;;;;;;4998996;28;20040;-80
2024/01/22 02:23:42;;;;;;;8.02;4.13;;;;;;;;;;5006674;28;20072;-80
2024/01/22 02:26:08;;;;;;;8.93;3.90;;;;;;;;;;5018250;28;20104;-80
2024/01/22 02:28:33;;;;;;;9.20;4.07;;;;;;;;;;4994033;28;20121;-81
2024/01/22 02:30:59;;;;;;;6.53;3.70;;;;;;;;;;4988219;28;20041;-80
2024/01/22 02:33:25;;;;;;;5.93;3.42;;;;;;;;;;4998107;28;20445;-80
2024/01/22 02:35:50;;;;;;;6.07;3.53;;;;;;;;;;4980132;28;20042;-80
2024/01/22 02:38:15;;;;;;;7.93;3.90;;;;;;;;;;4986941;28;20040;-79
2024/01/22 02:40:42;;;;;;;7.93;3.28;;;;;;;;;;4996243;28;20428;-81
2024/01/22 02:43:07;;;;;;;5.75;3.38;;;;;;;;;;5011724;28;20038;-80
2024/01/22 02:45:33;;;;;;;7.30;3.55;;;;;;;;;;5015277;28;20551;-81
2024/01/22 02:47:58;;;;;;;7.82;3.25;;;;;;;;;;5014591;28;20050;-80
2024/01/22 02:50:23;;;;;;;7.30;3.90;;;;;;;;;;5015853;28;20049;-79
2024/01/22 02:52:49;;;;;;;6.25;3.17;;;;;;;;;;5013099;28;20030;-80
2024/01/22 02:55:15;;;;;;;6.75;3.65;;;;;;;;;;5017073;28;20038;-80
2024/01/22 02:57:40;;;;;;;7.25;3.70;;;;;;;;;;5006298;28;20038;-82
2024/01/22 03:00:06;;;;;;;6.68;3.15;;;;;;;;;;5032276;28;20034;-81
2024/01/22 03:02:32;;;;;;;7.80;3.80;;;;;;;;;;4997625;28;20038;-79
2024/01/22 03:04:57;;;;;;;7.28;3.15;;;;;;;;;;4982986;28;20096;-81
2024/01/22 03:07:23;;;;;;;8.45;3.40;;;;;;;;;;4993921;28;20041;-80
2024/01/22 03:09:48;;;;;;;6.95;3.78;;;;;;;;;;4996821;28;20037;-80
2024/01/22 03:12:13;;;;;;;6.22;3.38;;;;;;;;;;4979961;28;20037;-80
2024/01/22 03:14:39;;;;;;;8.77;3.50;;;;;;;;;;4998875;28;20121;-80
2024/01/22 03:17:04;;;;;;;7.10;3.83;;;;;;;;;;4995475;28;20066;-80
2024/01/22 03:19:30;;;;;;;7.93;3.65;;;;;;;;;;4994237;28;20037;-80
2024/01/22 03:21:55;;;;;;;7.10;3.20;;;;;;;;;;4996444;28;20038;-79
2024/01/22 03:24:21;;;;;;;8.73;3.95;;;;;;;;;;4997378;28;20465;-80
2024/01/22 03:26:47;;;;;;;6.47;3.20;;;;;;;;;;4993487;28;20034;-80
2024/01/22 03:29:12;;;;;;;6.97;3.60;;;;;;;;;;4982238;28;20041;-80
2024/01/22 03:31:38;;;;;;;7.78;3.58;;;;;;;;;;5006559;28;20045;-80
2024/01/22 03:34:03;;;;;;;7.20;3.42;;;;;;;;;;5015816;28;20030;-81
2024/01/22 03:36:29;;;;;;;6.43;3.10;;;;;;;;;;5017091;28;20034;-81
2024/01/22 03:38:54;;;;;;;8.50;3.40;;;;;;;;;;5014900;28;20088;-79
2024/01/22 03:41:20;;;;;;;6.80;3.20;;;;;;;;;;5002540;28;20180;-80
2024/01/22 03:43:45;;;;;;;6.63;3.47;;;;;;;;;;5004832;28;20037;-79
2024/01/22 03:46:11;;;;;;;7.63;3.55;;;;;;;;;;5015091;28;20080;-79
2024/01/22 03:48:36;;;;;;;5.07;2.88;;;;;;;;;;5013281;28;20056;-80
2024/01/22 03:51:02;;;;;;;6.20;3.25;;;;;;;;;;5013205;28;20033;-79
2024/01/22 03:53:27;;;;;;;6.65;3.00;;;;;;;;;;5010537;28;20045;-80
2024/01/22 03:55:53;;;;;;;7.28;3.15;;;;;;;;;;5006963;28;20040;-79
2024/01/22 03:58:18;;;;;;;6.18;3.05;;;;;;;;;;4995729;28;20098;-80
2024/01/22 04:00:44;;;;;;;5.40;2.85;;;;;;;;;;4987686;28;20034;-79
2024/01/22 04:03:09;;;;;;;7.50;3.25;;;;;;;;;;5013918;28;20045;-80
2024/01/22 04:05:35;;;;;;;5.38;2.97;;;;;;;;;;5014273;28;20498;-80
2024/01/22 04:08:00;;;;;;;4.88;2.80;;;;;;;;;;5010602;28;20380;-80
2024/01/22 04:10:26;;;;;;;6.10;3.03;;;;;;;;;;5016023;28;20030;-80
2024/01/22 04:12:54;;;;;;;5.68;2.85;;;;;;;;;;5015377;28;20125;-80
2024/01/22 04:15:20;;;;;;;5.15;2.88;;;;;;;;;;5016969;28;20493;-80
2024/01/22 04:17:45;;;;;;;5.70;2.65;;;;;;;;;;5013605;28;20029;-80
2024/01/22 04:20:11;;;;;;;6.25;2.85;;;;;;;;;;4994559;28;20030;-79
2024/01/22 04:22:36;;;;;;;8.15;3.00;;;;;;;;;;5002917;28;20038;-79
2024/01/22 04:25:02;;;;;;;6.15;2.85;;;;;;;;;;5014843;28;20087;-79
2024/01/22 04:27:28;;;;;;;6.03;3.10;;;;;;;;;;5013890;28;20440;-79
2024/01/22 04:29:53;;;;;;;7.13;3.20;;;;;;;;;;5021688;28;20038;-81
2024/01/22 04:32:19;;;;;;;5.72;2.70;;;;;;;;;;5011468;28;20037;-81
2024/01/22 04:34:46;;;;;;;4.43;2.40;;;;;;;;;;5014942;28;20034;-80
2024/01/22 04:37:12;;;;;;;6.40;2.35;;;;;;;;;;5015909;28;20128;-79
2024/01/22 04:39:39;;;;;;;8.10;2.85;;;;;;;;;;5018780;28;20819;-79
2024/01/22 04:42:04;;;;;;;5.13;2.83;;;;;;;;;;5009966;28;20038;-80
2024/01/22 04:44:30;;;;;;;6.38;2.80;;;;;;;;;;5015128;28;20041;-81
2024/01/22 04:46:56;;;;;;;5.32;2.60;;;;;;;;;;5017687;28;20058;-80
2024/01/22 04:49:21;;;;;;;5.18;2.50;;;;;;;;;;5015136;28;20049;-81
2024/01/22 04:51:47;;;;;;;5.78;2.47;;;;;;;;;;5014065;28;20029;-81
2024/01/22 04:54:12;;;;;;;7.60;2.42;;;;;;;;;;4996075;28;20082;-81
2024/01/22 04:56:42;;;;;;;6.28;2.50;;;;;;;;;;5002659;28;20596;-80
2024/01/22 04:59:08;;;;;;;4.97;2.10;;;;;;;;;;4995792;28;20040;-81
2024/01/22 05:01:33;;;;;;;5.25;2.38;;;;;;;;;;5008458;28;20092;-81
2024/01/22 05:04:00;;;;;;;5.60;2.53;;;;;;;;;;5015705;28;20045;-80
2024/01/22 05:06:25;;;;;;;5.90;2.20;;;;;;;;;;5014094;28;21078;-81
2024/01/22 05:08:51;;;;;;;5.63;2.30;;;;;;;;;;5010753;28;20057;-81
2024/01/22 05:11:16;;;;;;;6.65;2.38;;;;;;;;;;5012823;28;20037;-79
2024/01/22 05:13:54;;;;;;;4.10;2.10;;;;;;;;;;5011942;28;20130;-80
2024/01/22 05:16:21;;;;;;;5.63;2.15;;;;;;;;;;5013652;28;20603;-81
2024/01/22 05:18:47;;;;;;;4.53;1.70;;;;;;;;;;5012204;28;20091;-79
2024/01/22 05:21:13;;;;;;;4.75;2.08;;;;;;;;;;5018534;28;20037;-80
2024/01/22 05:23:39;;;;;;;4.88;1.98;;;;;;;;;;5015179;28;20034;-80
2024/01/22 05:26:05;;;;;;;4.18;1.83;;;;;;;;;;5014589;28;20076;-79
2024/01/22 05:28:31;;;;;;;6.72;2.05;;;;;;;;;;5012402;28;20061;-80
2024/01/22 05:30:57;;;;;;;4.75;2.00;;;;;;;;;;5010894;28;20065;-79
2024/01/22 05:33:22;;;;;;;5.50;2.10;;;;;;;;;;5000213;28;20099;-80
2024/01/22 05:35:48;;;;;;;4.05;1.70;;;;;;;;;;5008900;28;20030;-81
2024/01/22 05:38:14;;;;;;;6.93;1.70;;;;;;;;;;5005974;28;20034;-81
2024/01/22 05:40:40;;;;;;;4.72;1.70;;;;;;;;;;5017838;28;20052;-81
2024/01/22 05:43:05;;;;;;;3.97;2.10;;;;;;;;;;5018756;28;20087;-82
2024/01/22 05:45:31;;;;;;;3.17;1.60;;;;;;;;;;5018572;28;20046;-84
2024/01/22 05:47:56;;;;;;;4.93;1.83;;;;;;;;;;5015147;28;20041;-80
2024/01/22 05:50:22;;;;;;;6.18;1.90;;;;;;;;;;5017712;28;20053;-81
2024/01/22 05:52:47;;;;;;;4.03;1.55;;;;;;;;;;5019677;28;20030;-84
2024/01/22 05:55:13;;;;;;;3.85;1.70;;;;;;;;;;5010201;28;20042;-83
2024/01/22 05:57:38;;;;;;;4.97;1.58;;;;;;;;;;5015758;28;20026;-84
2024/01/22 06:00:12;;;;;;;4.72;1.45;;;;;;;;;;5017957;28;20109;-83
2024/01/22 06:02:41;;;;;;;4.70;1.50;;;;;;;;;;5018709;28;20062;-81
2024/01/22 06:05:07;;;;;;;5.00;1.40;;;;;;;;;;5002793;28;20487;-82
2024/01/22 06:07:32;;;;;;;4.90;1.50;;;;;;;;;;5001783;28;20038;-83
2024/01/22 06:09:58;;;;;;;4.05;1.42;;;;;;;;;;5019618;28;20030;-84
2024/01/22 06:12:25;;;;;;;5.07;1.60;;;;;;;;;;5015652;28;20049;-83
2024/01/22 06:14:51;;;;;;;3.97;1.42;;;;;;;;;;5002911;28;20097;-84
2024/01/22 06:17:16;;;;;;;4.95;1.40;;;;;;;;;;5018829;28;20041;-83
2024/01/22 06:19:41;;;;;;;4.63;1.40;;;;;;;;;;5019749;28;20057;-82
2024/01/22 06:22:07;;;;;;;5.85;1.80;;;;;;;;;;5015428;28;20121;-82
2024/01/22 06:24:35;;;;;;;4.80;1.58;;;;;;;;;;5016919;28;20390;-82
2024/01/22 06:27:01;;;;;;;3.38;1.17;;;;;;;;;;5000501;28;20041;-82
2024/01/22 06:29:26;;;;;;;3.53;1.33;;;;;;;;;;5015601;28;20489;-82
2024/01/22 06:31:51;;;;;;;5.68;1.45;;;;;;;;;;5004822;28;20049;-82
2024/01/22 06:34:17;;;;;;;3.55;1.50;;;;;;;;;;4998847;28;20026;-82
2024/01/22 06:36:42;;;;;;;3.30;1.30;;;;;;;;;;4994735;28;20587;-83
2024/01/22 06:39:08;;;;;;;3.45;1.50;;;;;;;;;;4993489;28;20045;-83
2024/01/22 06:41:34;;;;;;;3.42;1.40;;;;;;;;;;4995051;28;20080;-83
2024/01/22 06:43:59;;;;;;;4.75;1.52;;;;;;;;;;5004555;28;20582;-82
2024/01/22 06:46:25;;;;;;;3.70;1.40;;;;;;;;;;4995518;28;20132;-83
2024/01/22 06:49:10;;;;;;;2.78;1.30;;;;;;;;;;4995635;28;20042;-83
2024/01/22 06:51:36;;;;;;;4.10;1.30;;;;;;;;;;4965542;28;20113;-82
2024/01/22 06:54:01;;;;;;;3.58;1.48;;;;;;;;;;4966646;28;20070;-81
2024/01/22 06:56:26;;;;;;;2.65;1.35;;;;;;;;;;4966823;28;21113;-82
2024/01/22 06:58:52;;;;;;;4.05;1.33;;;;;;;;;;4924840;29;20094;-80
2024/01/22 07:01:19;;;;;;;3.30;1.27;;;;;;;;;;4944266;28;20086;-84
2024/01/22 07:03:44;;;;;;;2.33;1.10;;;;;;;;;;4949035;28;20035;-80
2024/01/22 07:06:09;;;;;;;3.35;1.20;;;;;;;;;;4966461;28;20050;-83
2024/01/22 07:08:35;;;;;;;3.83;1.50;;;;;;;;;;4937779;29;20098;-81
2024/01/22 07:11:00;;;;;;;2.83;1.10;;;;;;;;;;4953243;28;20041;-80
2024/01/22 07:13:25;;;;;;;2.83;1.10;;;;;;;;;;4966257;28;20035;-81
2024/01/22 07:15:51;;;;;;;4.00;1.17;;;;;;;;;;4966503;28;20057;-82
2024/01/22 07:18:16;;;;;;;3.15;1.23;;;;;;;;;;4966655;28;20043;-81
2024/01/22 07:20:42;;;;;;;3.10;1.13;;;;;;;;;;4966974;28;20434;-81
2024/01/22 07:23:07;;;;;;;2.53;1.13;;;;;;;;;;4951540;28;20117;-81
2024/01/22 07:25:36;;;;;;;4.30;1.40;;;;;;;;;;4938948;29;20086;-82
2024/01/22 07:28:05;;;;;;;3.30;1.10;;;;;;;;;;4977999;28;20040;-82
2024/01/22 07:30:30;;;;;;;3.10;1.27;;;;;;;;;;5017931;28;20451;-83
2024/01/22 07:32:56;;;;;;;3.67;1.63;;;;;;;;;;5012392;28;20072;-83
2024/01/22 07:35:22;;;;;;;4.03;1.27;;;;;;;;;;4999407;28;20033;-81
2024/01/22 07:37:47;;;;;;;2.88;1.10;;;;;;;;;;4997215;28;20064;-82
2024/01/22 07:40:13;;;;;;;3.08;1.25;;;;;;;;;;5017119;28;20366;-83
2024/01/22 07:42:41;;;;;;;2.42;1.00;;;;;;;;;;5013408;28;20034;-82
2024/01/22 07:45:08;;;;;;;4.22;1.35;;;;;;;;;;5010933;28;20037;-82
2024/01/22 07:47:34;;;;;;;3.38;1.17;;;;;;;;;;5014729;28;20092;-82
2024/01/22 07:49:59;;;;;;;2.22;0.90;;;;;;;;;;5014524;28;20689;-81
2024/01/22 07:52:25;;;;;;;4.22;1.30;;;;;;;;;;5001363;28;20537;-83
2024/01/22 07:54:50;;;;;;;3.55;1.17;;;;;;;;;;4995052;28;20038;-83
2024/01/22 07:57:16;;;;;;;5.68;1.40;;;;;;;;;;4995756;28;20034;-83
2024/01/22 07:59:42;;;;;;;3.85;1.02;;;;;;;;;;4998715;28;20031;-81
2024/01/22 08:02:07;;;;;;;3.63;1.10;;;;;;;;;;5003614;28;20036;-83
2024/01/22 08:04:33;;;;;;;3.55;1.05;;;;;;;;;;4976232;28;20050;-83
2024/01/22 08:07:03;;;;;;;3.25;1.27;;;;;;;;;;4993985;28;20390;-83
2024/01/22 08:09:29;;;;;;;3.25;1.35;;;;;;;;;;5010144;28;20040;-82
2024/01/22 08:11:55;;;;;;;2.90;1.10;;;;;;;;;;4985922;28;20064;-82
2024/01/22 08:14:21;;;;;;;3.20;1.10;;;;;;;;;;4993427;28;20113;-83
2024/01/22 08:16:46;;;;;;;3.15;1.10;;;;;;;;;;4995470;28;20580;-81
2024/01/22 08:19:15;;;;;;;4.88;1.17;;;;;;;;;;4992988;28;20587;-82
2024/01/22 08:21:40;;;;;;;3.00;1.30;;;;;;;;;;5002436;28;20069;-82
2024/01/22 08:24:26;;;;;;;3.40;1.15;;;;;;;;;;4992220;28;20597;-82
2024/01/22 08:26:52;;;;;;;6.10;1.25;;;;;;;;;;4957833;28;20125;-82
2024/01/22 08:29:17;;;;;;;6.22;1.50;;;;;;;;;;4964950;28;20558;-81
2024/01/22 08:31:43;;;;;;;4.43;1.50;;;;;;;;;;4973376;28;20565;-82
2024/01/22 08:34:08;;;;;;;3.90;1.52;;;;;;;;;;4959513;28;20744;-83
2024/01/22 08:36:33;;;;;;;4.13;1.42;;;;;;;;;;4953800;28;20230;-82
2024/01/22 08:38:59;;;;;;;4.00;1.50;;;;;;;;;;4974455;28;20507;-82
2024/01/22 08:41:27;;;;;;;4.38;1.40;;;;;;;;;;4956833;28;20038;-82
2024/01/22 08:43:55;;;;;;;;;;;;;;;;;;4965535;28;20633;-82
2024/01/22 08:46:20;;;;;;;5.35;1.70;;;;;;;;;;4944394;28;20462;-82
2024/01/22 08:48:46;;;;;;;3.85;1.40;;;;;;;;;;4974899;28;20043;-82
2024/01/22 08:51:12;;;;;;;5.93;1.20;;;;;;;;;;4972692;28;20038;-81
2024/01/22 08:53:37;;;;;;;3.67;1.52;;;;;;;;;;4951971;28;20434;-81
2024/01/22 08:56:03;;;;;;;3.20;1.50;;;;;;;;;;4975524;28;20069;-84
2024/01/22 08:58:28;;;;;;;4.03;1.58;;;;;;;;;;4971141;28;20085;-82
2024/01/22 09:00:53;;;;;;;4.15;1.67;;;;;;;;;;4939734;28;20054;-81
2024/01/22 09:03:24;;;;;;;5.65;1.90;;;;;;;;;;4972831;28;20062;-82
2024/01/22 09:05:49;;;;;;;5.80;1.70;;;;;;;;;;5007792;28;20058;-83
2024/01/22 09:08:14;;;;;;;5.68;1.52;;;;;;;;;;4995549;28;20041;-80
2024/01/22 09:10:40;;;;;;;4.80;1.55;;;;;;;;;;4991375;28;20490;-82
2024/01/22 09:13:05;;;;;;;4.20;1.63;;;;;;;;;;4992281;28;20451;-80
2024/01/22 09:15:30;;;;;;;5.30;1.70;;;;;;;;;;4996452;28;20576;-80
2024/01/22 09:17:56;;;;;;;5.38;2.47;;;;;;;;;;4995068;28;20034;-81
2024/01/22 09:20:21;;;;;;;5.55;1.63;;;;;;;;;;5018375;28;20073;-80
2024/01/22 09:22:48;;;;;;;7.50;1.88;;;;;;;;;;5013600;28;20025;-80
2024/01/22 09:25:13;;;;;;;3.43;1.70;;;;;;;;;;5021288;28;20470;-81
2024/01/22 09:27:39;;;;;;;6.60;1.55;;;;;;;;;;4993662;28;20100;-80
2024/01/22 09:30:05;;;;;;;4.72;1.65;;;;;;;;;;4992501;28;20049;-80
2024/01/22 09:32:30;;;;;;;4.07;1.70;;;;;;;;;;5010840;28;20121;-83
2024/01/22 09:34:57;;;;;;;5.47;1.40;;;;;;;;;;5012960;28;20125;-80
2024/01/22 09:37:25;;;;;;;3.63;1.70;;;;;;;;;;5022459;28;20141;-82
2024/01/22 09:39:50;;;;;;;;;;;;;;;;;;5012516;28;20489;-81
2024/01/22 09:42:16;;;;;;;3.60;1.45;;;;;;;;;;5014149;28;19963;-81
2024/01/22 09:44:41;;;;;;;3.85;1.40;;;;;;;;;;5012541;28;20418;-83
2024/01/22 09:47:10;;;;;;;3.92;1.40;;;;;;;;;;5012562;28;20049;-82
2024/01/22 09:49:36;;;;;;;4.47;1.60;;;;;;;;;;5013365;28;20545;-81
2024/01/22 09:52:02;;;;;;;3.70;1.70;;;;;;;;;;5003082;28;20478;-83
2024/01/22 09:54:29;;;;;;;5.15;1.40;;;;;;;;;;4993033;28;20038;-82
2024/01/22 09:56:55;;;;;;;3.72;1.35;;;;;;;;;;4994600;28;20038;-80
2024/01/22 09:59:21;;;;;;;3.60;1.38;;;;;;;;;;4990976;28;20419;-82
2024/01/22 10:01:48;;;;;;;3.47;1.60;;;;;;;;;;4976925;28;20053;-83
2024/01/22 10:04:14;;;;;;;4.22;1.33;;;;;;;;;;4994532;28;20057;-84
2024/01/22 10:06:40;;;;;;;3.30;1.50;;;;;;;;;;4992089;28;20450;-85
2024/01/22 10:09:05;;;;;;;4.97;1.30;;;;;;;;;;4992754;28;20041;-84
2024/01/22 10:11:31;;;;;;;4.72;1.55;;;;;;;;;;4992275;28;20038;-85
2024/01/22 10:13:56;;;;;;;3.88;1.33;;;;;;;;;;5022425;28;20092;-83
2024/01/22 10:16:29;;;;;;;2.67;1.20;;;;;;;;;;5012708;28;20405;-83
2024/01/22 10:19:08;;;;;;;4.00;1.20;;;;;;;;;;5013702;28;20045;-84
2024/01/22 10:21:35;;;;;;;2.83;1.10;;;;;;;;;;5000509;28;20038;-81
2024/01/22 10:24:03;;;;;;;3.72;1.20;;;;;;;;;;5017228;28;20393;-80
2024/01/22 10:26:32;;;;;;;2.40;1.08;;;;;;;;;;5008383;28;20040;-82
2024/01/22 10:29:14;;;;;;;3.72;1.25;;;;;;;;;;5017373;28;20060;-81
2024/01/22 10:31:56;;;;;;;3.53;1.30;;;;;;;;;;5014835;28;20046;-81
2024/01/22 10:34:27;;;;;;;6.80;1.20;;;;;;;;;;5018681;28;20564;-83
2024/01/22 10:37:08;;;;;;;3.05;1.00;;;;;;;;;;5016412;28;20057;-82
2024/01/22 10:39:38;;;;;;;3.42;1.20;;;;;;;;;;4997336;28;20498;-84
2024/01/22 10:42:10;;;;;;;3.05;1.13;;;;;;;;;;5014247;28;20069;-85
2024/01/22 10:44:40;;;;;;;3.58;1.13;;;;;;;;;;5009581;28;20037;-86
2024/01/22 10:47:05;;;;;;;2.50;0.95;;;;;;;;;;5017279;28;20038;-84
2024/01/22 10:49:32;;;;;;;4.32;1.15;;;;;;;;;;5019319;28;20478;-84
2024/01/22 10:51:59;;;;;;;3.65;1.20;;;;;;;;;;4993269;28;20040;-85
2024/01/22 10:54:26;;;;;;;4.03;1.17;;;;;;;;;;4997449;28;20460;-85
2024/01/22 10:56:59;;;;;;;2.40;0.95;;;;;;;;;;4991477;28;20137;-83
2024/01/22 10:59:25;;;;;;;3.90;1.00;;;;;;;;;;5017973;28;20116;-83
2024/01/22 11:01:53;;;;;;;2.25;0.88;;;;;;;;;;5010300;28;20133;-84
2024/01/22 11:04:19;;;;;;;;;;;;;;;;;;5016717;28;20034;-85
2024/01/22 11:07:06;;;;;;;2.85;0.85;;;;;;;;;;5007417;28;20258;-84
2024/01/22 11:09:32;;;;;;;3.40;0.90;;;;;;;;;;4941775;28;20501;-82
2024/01/22 11:12:03;;;;;;;3.28;0.95;;;;;;;;;;4955564;28;20273;-84
2024/01/22 11:14:29;;;;;;;2.65;1.00;;;;;;;;;;4996094;28;20038;-83
2024/01/22 11:16:54;;;;;;;4.15;0.90;;;;;;;;;;4979724;28;20046;-84
2024/01/22 11:19:23;;;;;;;4.00;1.00;;;;;;;;;;4992797;28;20482;-83
2024/01/22 11:21:52;;;;;;;2.60;0.70;;;;;;;;;;4975989;28;20038;-85
2024/01/22 11:24:19;;;;;;;1.98;0.95;;;;;;;;;;4994282;28;20085;-83
2024/01/22 11:26:51;;;;;;;2.03;1.00;;;;;;;;;;4977932;28;20133;-84
2024/01/22 11:29:26;;;;;;;2.42;0.80;;;;;;;;;;4982775;28;20045;-83
2024/01/22 11:31:52;;;;;;;3.35;1.00;;;;;;;;;;4975932;28;20042;-83
2024/01/22 11:34:39;;;;;;;2.95;0.90;;;;;;;;;;4983189;28;20107;-83
2024/01/22 11:37:05;;;;;;;4.30;0.93;;;;;;;;;;4979614;28;20120;-85
2024/01/22 11:39:41;;;;;;;3.65;0.85;;;;;;;;;;4995644;28;20433;-83
2024/01/22 11:42:15;;;;;;;2.03;0.90;;;;;;;;;;4993606;28;20037;-84
2024/01/22 11:44:46;;;;;;;2.80;0.90;;;;;;;;;;4994605;28;20100;-84
2024/01/22 11:47:11;;;;;;;2.38;1.00;;;;;;;;;;5011139;28;20034;-84
2024/01/22 11:49:38;;;;;;;3.28;1.00;;;;;;;;;;5015928;28;20053;-85
2024/01/22 11:52:10;;;;;;;1.75;0.77;;;;;;;;;;5014317;28;20422;-84
2024/01/22 11:54:35;;;;;;;2.17;0.70;;;;;;;;;;5014886;28;20124;-85
2024/01/22 11:57:02;;;;;;;3.85;0.85;;;;;;;;;;5015553;28;20446;-84
2024/01/22 11:59:28;;;;;;;2.65;0.85;;;;;;;;;;5017126;28;20425;-84
2024/01/22 12:02:05;;;;;;;2.08;0.70;;;;;;;;;;5012240;28;20030;-84
2024/01/22 12:04:30;;;;;;;2.83;0.77;;;;;;;;;;5012816;28;20049;-84
2024/01/22 12:06:56;;;;;;;1.95;0.80;;;;;;;;;;5016314;28;20041;-84
2024/01/22 12:09:21;;;;;;;2.40;0.85;;;;;;;;;;5015624;28;20037;-84
2024/01/22 12:11:51;;;;;;;1.67;0.65;;;;;;;;;;5001057;28;20053;-84
2024/01/22 12:14:16;;;;;;;1.73;0.70;;;;;;;;;;5017411;28;20389;-85
2024/01/22 12:16:42;;;;;;;2.45;1.00;;;;;;;;;;5015994;28;20033;-85
2024/01/22 12:19:11;;;;;;;3.50;1.23;;;;;;;;;;5013800;28;20482;-84
2024/01/22 12:21:38;;;;;;;2.78;0.77;;;;;;;;;;5014915;28;20048;-83
2024/01/22 12:24:14;;;;;;;2.90;0.80;;;;;;;;;;5016155;28;20033;-83
2024/01/22 12:26:40;;;;;;;2.90;0.77;;;;;;;;;;5014871;28;20040;-85
2024/01/22 12:29:06;;;;;;;3.10;1.02;;;;;;;;;;4998924;28;20108;-85
2024/01/22 12:31:32;;;;;;;1.95;0.60;;;;;;;;;;5015778;28;20248;-84
2024/01/22 12:34:12;;;;;;;2.90;0.80;;;;;;;;;;5016995;28;20037;-84
2024/01/22 12:36:38;;;;;;;2.75;0.77;;;;;;;;;;5010174;28;20113;-85
2024/01/22 12:39:05;;;;;;;2.25;0.75;;;;;;;;;;5016872;28;20121;-84
2024/01/22 12:41:31;;;;;;;;;;;;;;;;;;5015614;28;20084;-84
2024/01/22 12:43:57;;;;;;;1.88;0.60;;;;;;;;;;5000664;28;20052;-85
2024/01/22 12:46:22;;;;;;;2.00;0.60;;;;;;;;;;5019413;28;20541;-87
2024/01/22 12:48:55;;;;;;;1.95;0.70;;;;;;;;;;5013649;28;20025;-85
2024/01/22 12:51:25;;;;;;;1.38;0.60;;;;;;;;;;5010571;28;20034;-84
2024/01/22 12:53:53;;;;;;;1.85;0.70;;;;;;;;;;4995550;28;20037;-84
2024/01/22 12:56:19;;;;;;;1.95;0.60;;;;;;;;;;5010425;28;20056;-84
2024/01/22 12:58:44;;;;;;;2.17;0.77;;;;;;;;;;5014619;28;20029;-83
2024/01/22 13:01:12;;;;;;;3.00;0.80;;;;;;;;;;5016626;28;20041;-84
2024/01/22 13:03:38;;;;;;;1.55;0.65;;;;;;;;;;4996403;28;20056;-86
2024/01/22 13:06:05;;;;;;;1.85;0.75;;;;;;;;;;5013312;28;20701;-85
2024/01/22 13:08:32;;;;;;;2.42;0.70;;;;;;;;;;5013100;28;20073;-84
2024/01/22 13:10:57;;;;;;;2.20;0.77;;;;;;;;;;4997920;28;20131;-86
2024/01/22 13:13:24;;;;;;;2.97;0.80;;;;;;;;;;5016994;28;20037;-83
2024/01/22 13:15:51;;;;;;;2.25;0.80;;;;;;;;;;5015626;28;20030;-84
2024/01/22 13:18:17;;;;;;;1.70;0.52;;;;;;;;;;5015590;28;20478;-84
2024/01/22 13:20:42;;;;;;;3.28;0.60;;;;;;;;;;5014613;28;20116;-83
2024/01/22 13:23:09;;;;;;;3.03;0.70;;;;;;;;;;5012791;28;20433;-84
2024/01/22 13:25:34;;;;;;;2.97;0.73;;;;;;;;;;5014401;28;20033;-83
2024/01/22 13:28:00;;;;;;;1.48;0.52;;;;;;;;;;5013277;28;20036;-83
2024/01/22 13:30:26;;;;;;;2.40;0.80;;;;;;;;;;5014328;28;20052;-83
2024/01/22 13:32:52;;;;;;;3.03;0.75;;;;;;;;;;5013555;28;22108;-84
2024/01/22 13:35:18;;;;;;;2.15;0.70;;;;;;;;;;4998640;28;20033;-83
2024/01/22 13:37:44;;;;;;;2.50;0.65;;;;;;;;;;5013011;28;20401;-84
2024/01/22 13:40:10;;;;;;;2.33;0.70;;;;;;;;;;5012331;28;20454;-82
2024/01/22 13:42:36;;;;;;;3.13;0.80;;;;;;;;;;5013230;28;20116;-83
2024/01/22 13:45:03;;;;;;;2.35;0.70;;;;;;;;;;5010334;28;20113;-83
2024/01/22 13:47:29;;;;;;;2.33;0.82;;;;;;;;;;4993392;28;20038;-84
2024/01/22 13:49:54;;;;;;;2.17;0.73;;;;;;;;;;4995661;28;20493;-83
2024/01/22 13:52:19;;;;;;;3.17;0.90;;;;;;;;;;4979848;28;20034;-83
2024/01/22 13:54:46;;;;;;;3.03;0.90;;;;;;;;;;4995818;28;20022;-84
2024/01/22 13:57:12;;;;;;;2.40;0.73;;;;;;;;;;4995440;28;20053;-83
2024/01/22 13:59:39;;;;;;;2.45;0.70;;;;;;;;;;4984809;28;20512;-82
2024/01/22 14:02:05;;;;;;;2.45;0.90;;;;;;;;;;4996009;28;20033;-83
2024/01/22 14:04:31;;;;;;;2.88;0.90;;;;;;;;;;4982522;28;20080;-84
2024/01/22 14:06:57;;;;;;;2.33;0.65;;;;;;;;;;5014901;28;20132;-84
2024/01/22 14:09:22;;;;;;;2.67;0.80;;;;;;;;;;5019530;28;20489;-83
2024/01/22 14:11:47;;;;;;;2.97;0.70;;;;;;;;;;5016064;28;20026;-84
2024/01/22 14:14:13;;;;;;;2.20;0.70;;;;;;;;;;5018498;28;20038;-84
2024/01/22 14:16:38;;;;;;;2.63;0.70;;;;;;;;;;5013585;28;20041;-85
2024/01/22 14:19:04;;;;;;;2.40;0.77;;;;;;;;;;5013404;28;20034;-85
2024/01/22 14:21:29;;;;;;;3.08;0.95;;;;;;;;;;5011058;28;20070;-85
2024/01/22 14:23:54;;;;;;;2.60;0.70;;;;;;;;;;4985200;28;20121;-84
2024/01/22 14:26:20;;;;;;;2.20;0.70;;;;;;;;;;4985328;28;20086;-84
2024/01/22 14:28:46;;;;;;;4.45;0.80;;;;;;;;;;5013388;28;20034;-84
2024/01/22 14:31:12;;;;;;;2.63;0.73;;;;;;;;;;5013252;28;20469;-84
2024/01/22 14:33:38;;;;;;;2.97;0.80;;;;;;;;;;5015581;28;20038;-83
2024/01/22 14:36:04;;;;;;;2.15;0.80;;;;;;;;;;5017305;28;20097;-83
2024/01/22 14:38:31;;;;;;;2.03;0.77;;;;;;;;;;4998221;28;20045;-82